Time;durP1;ratioP1;P1;durP2;ratioP2;P2;SDS_P1;SDS_P2;PMS_P1;PMS_P2;Temp;Humidity;BMP_temperature;BMP_pressure;BME280_temperature;BME280_humidity;BME280_pressure;Samples;Min_cycle;Max_cycle;Signal;HPM_P1;HPM_P2
2022/03/09 00:01:04;;;;;;;19.40;12.47;;;6.30;99.90;;;;;;4957946;28;20181;-66
2022/03/09 00:03:30;;;;;;;19.93;12.30;;;6.30;99.90;;;;;;4957800;28;20678;-66
2022/03/09 00:05:55;;;;;;;19.27;12.37;;;6.30;99.90;;;;;;4957710;28;20173;-66
2022/03/09 00:08:22;;;;;;;18.83;12.73;;;6.20;99.90;;;;;;4957621;28;20252;-66
2022/03/09 00:10:48;;;;;;;16.40;12.50;;;6.20;99.90;;;;;;4957850;28;20259;-66
2022/03/09 00:13:13;;;;;;;17.47;12.57;;;6.20;99.90;;;;;;4957515;28;20173;-66
2022/03/09 00:15:39;;;;;;;19.73;13.00;;;6.10;99.90;;;;;;4957883;28;20172;-66
2022/03/09 00:18:04;;;;;;;18.83;11.83;;;6.10;99.90;;;;;;4957371;28;20184;-66
2022/03/09 00:20:30;;;;;;;17.43;12.33;;;6.00;99.90;;;;;;4957123;28;20176;-66
2022/03/09 00:22:55;;;;;;;17.40;11.73;;;6.00;99.90;;;;;;4957337;28;20212;-66
2022/03/09 00:25:21;;;;;;;16.13;11.67;;;6.00;99.90;;;;;;4955416;28;20535;-66
2022/03/09 00:27:47;;;;;;;15.27;11.23;;;5.90;99.90;;;;;;4957247;28;20659;-66
2022/03/09 00:30:12;;;;;;;20.27;12.13;;;6.00;99.90;;;;;;4957499;28;20532;-66
2022/03/09 00:32:39;;;;;;;16.50;12.27;;;5.90;99.90;;;;;;4956948;28;20663;-66
2022/03/09 00:35:07;;;;;;;21.03;12.23;;;5.90;99.90;;;;;;4957073;28;20509;-66
2022/03/09 00:37:32;;;;;;;17.20;11.87;;;5.90;99.90;;;;;;4957122;28;20177;-65
2022/03/09 00:39:58;;;;;;;21.80;12.03;;;5.90;99.90;;;;;;4957212;28;20504;-66
2022/03/09 00:42:23;;;;;;;14.93;11.67;;;5.90;99.90;;;;;;4956931;28;20220;-66
2022/03/09 00:44:49;;;;;;;18.30;12.20;;;6.00;99.90;;;;;;4956912;28;20169;-66
2022/03/09 00:47:15;;;;;;;17.93;11.97;;;6.00;99.90;;;;;;4956941;28;20645;-65
2022/03/09 00:49:40;;;;;;;14.47;11.30;;;6.00;99.90;;;;;;4956648;28;20165;-66
2022/03/09 00:52:06;;;;;;;15.57;11.33;;;6.00;99.90;;;;;;4956856;28;20185;-66
2022/03/09 00:54:31;;;;;;;18.03;11.60;;;6.00;99.90;;;;;;4956656;28;20176;-65
2022/03/09 00:56:57;;;;;;;16.53;11.50;;;6.00;99.90;;;;;;4956396;28;20180;-67
2022/03/09 00:59:23;;;;;;;16.20;11.50;;;6.10;99.90;;;;;;4956834;28;20181;-66
2022/03/09 01:01:48;;;;;;;17.60;11.93;;;6.20;99.90;;;;;;4956603;28;20208;-65
2022/03/09 01:04:14;;;;;;;16.10;11.00;;;6.20;99.90;;;;;;4956205;28;20653;-65
2022/03/09 01:06:39;;;;;;;16.90;12.30;;;6.20;99.90;;;;;;4956503;28;20180;-65
2022/03/09 01:09:08;;;;;;;17.27;11.73;;;6.20;99.90;;;;;;4956068;28;20243;-67
2022/03/09 01:11:34;;;;;;;16.40;11.50;;;6.20;99.90;;;;;;4956497;28;20227;-66
2022/03/09 01:13:59;;;;;;;16.53;11.17;;;6.10;99.90;;;;;;4956611;28;20652;-65
2022/03/09 01:16:25;;;;;;;18.63;12.47;;;6.10;99.90;;;;;;4956300;28;20168;-65
2022/03/09 01:18:51;;;;;;;18.17;12.03;;;6.10;99.90;;;;;;4955901;28;20207;-66
2022/03/09 01:21:16;;;;;;;16.93;12.03;;;6.10;99.90;;;;;;4956099;28;20173;-65
2022/03/09 01:23:42;;;;;;;16.90;11.07;;;6.10;99.90;;;;;;4956265;28;20208;-66
2022/03/09 01:26:07;;;;;;;18.60;11.80;;;6.10;99.90;;;;;;4956537;28;20169;-67
2022/03/09 01:28:33;;;;;;;17.50;11.97;;;6.10;99.90;;;;;;4955873;28;20232;-66
2022/03/09 01:30:58;;;;;;;20.70;12.03;;;6.10;99.90;;;;;;4956335;28;20617;-66
2022/03/09 01:33:24;;;;;;;16.97;11.37;;;6.10;99.90;;;;;;4955834;28;20235;-67
2022/03/09 01:35:50;;;;;;;16.57;11.67;;;6.00;99.90;;;;;;4956275;28;20647;-66
2022/03/09 01:38:15;;;;;;;17.37;11.53;;;6.10;99.90;;;;;;4955000;28;20176;-65
2022/03/09 01:40:41;;;;;;;18.53;11.73;;;6.10;99.90;;;;;;4955981;28;20243;-65
2022/03/09 01:43:06;;;;;;;15.07;11.47;;;6.10;99.90;;;;;;4955897;28;20291;-65
2022/03/09 01:45:32;;;;;;;19.33;12.10;;;6.10;99.90;;;;;;4956559;28;20207;-65
2022/03/09 01:47:58;;;;;;;15.73;11.37;;;6.10;99.90;;;;;;4955832;28;20283;-65
2022/03/09 01:50:23;;;;;;;18.20;12.23;;;6.20;99.90;;;;;;4956045;28;20597;-66
2022/03/09 01:52:49;;;;;;;15.00;11.63;;;6.10;99.90;;;;;;4955740;28;20179;-65
2022/03/09 01:55:15;;;;;;;17.23;12.20;;;6.10;99.90;;;;;;4955905;28;20172;-66
2022/03/09 01:57:41;;;;;;;17.40;11.43;;;6.00;99.90;;;;;;4956137;28;20220;-65
2022/03/09 02:00:08;;;;;;;14.43;11.20;;;6.00;99.90;;;;;;4955996;28;20185;-66
2022/03/09 02:02:33;;;;;;;15.67;11.63;;;6.00;99.90;;;;;;4955396;28;20219;-65
2022/03/09 02:04:59;;;;;;;16.10;11.67;;;6.00;99.90;;;;;;4955765;28;20173;-65
2022/03/09 02:10:18;;;;;;;16.53;11.67;;;5.90;99.90;;;;;;4954089;29;20287;-65
2022/03/09 02:12:43;;;;;;;18.20;11.00;;;5.90;99.90;;;;;;4953382;29;20188;-65
2022/03/09 02:15:09;;;;;;;15.87;11.70;;;5.90;99.90;;;;;;4953427;29;20271;-65
2022/03/09 02:17:35;;;;;;;15.77;11.50;;;5.80;99.90;;;;;;4953639;29;20261;-65
2022/03/09 02:20:02;;;;;;;17.90;11.37;;;5.80;99.90;;;;;;4953492;29;20185;-65
2022/03/09 02:22:32;;;;;;;15.13;11.60;;;5.80;99.90;;;;;;4953156;29;20216;-66
2022/03/09 02:24:59;;;;;;;14.10;11.17;;;5.80;99.90;;;;;;4953458;29;20185;-65
2022/03/09 02:27:26;;;;;;;16.50;11.40;;;5.70;99.90;;;;;;4953074;29;20299;-65
2022/03/09 02:29:52;;;;;;;17.33;11.50;;;5.70;99.90;;;;;;4953118;29;20177;-65
2022/03/09 02:32:18;;;;;;;17.37;12.07;;;5.80;99.90;;;;;;4953011;29;20173;-65
2022/03/09 02:34:45;;;;;;;15.60;11.37;;;5.70;99.90;;;;;;4937346;29;20305;-66
2022/03/09 02:37:10;;;;;;;15.20;11.07;;;5.70;99.90;;;;;;4953394;29;20177;-65
2022/03/09 02:39:37;;;;;;;16.57;11.80;;;5.70;99.90;;;;;;4953198;29;20187;-65
2022/03/09 02:42:03;;;;;;;16.37;11.53;;;5.70;99.90;;;;;;4953063;29;20205;-65
2022/03/09 02:44:29;;;;;;;17.17;11.93;;;5.70;99.90;;;;;;4952929;29;20614;-65
2022/03/09 02:46:55;;;;;;;17.60;11.73;;;5.70;99.90;;;;;;4953991;29;20252;-64
2022/03/09 02:49:21;;;;;;;15.67;11.40;;;5.70;99.90;;;;;;4954848;28;20188;-66
2022/03/09 02:51:47;;;;;;;15.43;11.37;;;5.70;99.90;;;;;;4955082;28;20181;-64
2022/03/09 02:54:13;;;;;;;15.30;11.23;;;5.70;99.90;;;;;;4955226;28;20179;-65
2022/03/09 02:56:38;;;;;;;16.33;11.23;;;5.70;99.90;;;;;;4955002;28;20180;-65
2022/03/09 02:59:04;;;;;;;16.53;11.80;;;5.60;99.90;;;;;;4954852;28;20275;-65
2022/03/09 03:01:30;;;;;;;17.00;11.70;;;5.60;99.90;;;;;;4954966;28;20178;-66
2022/03/09 03:03:55;;;;;;;15.17;11.33;;;5.70;99.90;;;;;;4955286;28;20247;-65
2022/03/09 03:06:21;;;;;;;15.90;11.13;;;5.60;99.90;;;;;;4955048;28;20177;-65
2022/03/09 03:08:47;;;;;;;15.33;11.07;;;5.60;99.90;;;;;;4955204;28;20208;-65
2022/03/09 03:11:12;;;;;;;17.73;11.17;;;5.60;99.90;;;;;;4955212;28;20259;-65
2022/03/09 03:13:40;;;;;;;14.70;11.33;;;5.60;99.90;;;;;;4954752;28;20587;-65
2022/03/09 03:16:07;;;;;;;19.53;11.50;;;5.60;99.90;;;;;;4955089;28;20175;-64
2022/03/09 03:18:33;;;;;;;19.23;10.43;;;5.50;99.90;;;;;;4954947;28;20704;-65
2022/03/09 03:20:59;;;;;;;16.73;12.00;;;5.50;99.90;;;;;;4954900;28;20672;-66
2022/03/09 03:23:27;;;;;;;15.70;11.40;;;5.60;99.90;;;;;;4954720;28;20239;-65
2022/03/09 03:25:54;;;;;;;16.90;11.10;;;5.60;99.90;;;;;;4955166;28;20240;-65
2022/03/09 03:28:20;;;;;;;15.73;11.33;;;5.60;99.90;;;;;;4954270;28;20231;-66
2022/03/09 03:30:46;;;;;;;13.80;11.37;;;5.60;99.90;;;;;;4954820;28;20204;-65
2022/03/09 03:33:14;;;;;;;15.70;11.70;;;5.50;99.90;;;;;;4954756;28;20177;-65
2022/03/09 03:35:39;;;;;;;15.57;11.87;;;5.50;99.90;;;;;;4954949;28;20228;-66
2022/03/09 03:38:05;;;;;;;17.83;11.63;;;5.40;99.90;;;;;;4954747;28;20578;-66
2022/03/09 03:40:31;;;;;;;14.67;11.00;;;5.40;99.90;;;;;;4954735;28;20180;-66
2022/03/09 03:42:56;;;;;;;16.20;11.80;;;5.40;99.90;;;;;;4954197;28;20232;-66
2022/03/09 03:45:22;;;;;;;21.90;10.93;;;5.40;99.90;;;;;;4954548;28;20172;-65
2022/03/09 03:47:48;;;;;;;16.53;11.20;;;5.40;99.90;;;;;;4954692;28;20211;-65
2022/03/09 03:50:14;;;;;;;16.47;11.13;;;5.40;99.90;;;;;;4954341;28;20621;-65
2022/03/09 03:52:39;;;;;;;17.17;11.40;;;5.40;99.90;;;;;;4954377;28;20220;-65
2022/03/09 03:55:05;;;;;;;18.00;11.93;;;5.40;99.90;;;;;;4954505;28;20173;-65
2022/03/09 03:57:31;;;;;;;17.27;12.10;;;5.40;99.90;;;;;;4954130;28;20295;-65
2022/03/09 03:59:57;;;;;;;17.23;12.17;;;5.40;99.90;;;;;;4954361;28;20212;-65
2022/03/09 04:02:22;;;;;;;15.97;11.57;;;5.40;99.90;;;;;;4957558;28;20215;-65
2022/03/09 04:04:50;;;;;;;17.73;11.83;;;5.40;99.90;;;;;;4958063;28;20212;-65
2022/03/09 04:07:16;;;;;;;17.40;11.40;;;5.40;99.90;;;;;;4957694;28;20303;-65
2022/03/09 04:09:42;;;;;;;15.43;11.17;;;5.40;99.90;;;;;;4957716;28;20208;-66
2022/03/09 04:12:08;;;;;;;14.70;11.00;;;5.40;99.90;;;;;;4957232;28;20204;-65
2022/03/09 04:14:34;;;;;;;17.90;11.67;;;5.40;99.90;;;;;;4957455;28;20573;-65
2022/03/09 04:16:59;;;;;;;16.23;10.93;;;5.30;99.90;;;;;;4957667;28;20172;-65
2022/03/09 04:19:25;;;;;;;15.57;11.03;;;5.30;99.90;;;;;;4957612;28;20184;-65
2022/03/09 04:21:50;;;;;;;18.30;11.27;;;5.30;99.90;;;;;;4956972;28;20180;-65
2022/03/09 04:24:16;;;;;;;16.63;11.10;;;5.30;99.90;;;;;;4957399;28;20596;-65
2022/03/09 04:26:42;;;;;;;15.57;11.20;;;5.30;99.90;;;;;;4957205;28;20169;-65
2022/03/09 04:29:07;;;;;;;21.27;11.23;;;5.30;99.90;;;;;;4957113;28;20239;-65
2022/03/09 04:31:36;;;;;;;16.07;10.27;;;5.40;99.90;;;;;;4957385;28;20180;-65
2022/03/09 04:34:01;;;;;;;17.23;11.53;;;5.30;99.90;;;;;;4957051;28;20169;-66
2022/03/09 04:36:28;;;;;;;16.20;11.07;;;5.30;99.90;;;;;;4957220;28;20169;-65
2022/03/09 04:38:53;;;;;;;15.93;10.43;;;5.30;99.90;;;;;;4957397;28;20165;-65
2022/03/09 04:41:19;;;;;;;20.10;11.30;;;5.30;99.90;;;;;;4956208;28;20540;-65
2022/03/09 04:43:45;;;;;;;14.73;10.43;;;5.30;99.90;;;;;;4957056;28;20294;-66
2022/03/09 04:46:10;;;;;;;16.00;10.63;;;5.30;99.90;;;;;;4956993;28;20659;-66
2022/03/09 04:48:36;;;;;;;16.50;10.97;;;5.30;99.90;;;;;;4957431;28;20181;-65
2022/03/09 04:51:02;;;;;;;17.47;11.73;;;5.40;99.90;;;;;;4956622;28;20537;-65
2022/03/09 04:53:28;;;;;;;18.67;11.33;;;5.30;99.90;;;;;;4956636;28;20195;-65
2022/03/09 04:55:55;;;;;;;20.97;11.40;;;5.30;99.90;;;;;;4956032;28;20267;-66
2022/03/09 04:58:21;;;;;;;17.83;11.10;;;5.40;99.90;;;;;;4955637;29;20240;-66
2022/03/09 05:00:46;;;;;;;18.67;11.23;;;5.40;99.90;;;;;;4956775;28;20176;-66
2022/03/09 05:03:12;;;;;;;17.63;11.60;;;5.40;99.90;;;;;;4956337;28;20312;-66
2022/03/09 05:05:38;;;;;;;15.30;11.17;;;5.40;99.90;;;;;;4956763;28;20204;-66
2022/03/09 05:08:03;;;;;;;20.63;11.97;;;5.50;99.90;;;;;;4956491;28;20568;-67
2022/03/09 05:10:29;;;;;;;17.53;11.73;;;5.50;99.90;;;;;;4955792;28;20259;-66
2022/03/09 05:12:55;;;;;;;17.83;11.83;;;5.50;99.90;;;;;;4955888;28;20192;-65
2022/03/09 05:15:20;;;;;;;17.77;12.07;;;5.60;99.90;;;;;;4956527;28;20181;-65
2022/03/09 05:17:46;;;;;;;22.30;12.00;;;5.60;99.90;;;;;;4955102;29;20180;-65
2022/03/09 05:20:13;;;;;;;15.93;11.23;;;5.70;99.90;;;;;;4956319;28;20181;-66
2022/03/09 05:22:39;;;;;;;23.47;12.10;;;5.80;99.90;;;;;;4955671;28;20218;-65
2022/03/09 05:25:06;;;;;;;18.33;10.93;;;5.90;99.90;;;;;;4955839;28;20263;-65
2022/03/09 05:27:32;;;;;;;18.60;11.83;;;5.90;99.90;;;;;;4955822;28;20735;-66
2022/03/09 05:29:58;;;;;;;21.33;12.20;;;6.00;99.90;;;;;;4956178;28;20633;-66
2022/03/09 05:32:24;;;;;;;26.77;12.30;;;6.00;99.90;;;;;;4955836;28;20177;-66
2022/03/09 05:34:50;;;;;;;20.93;12.13;;;6.10;99.90;;;;;;4955923;28;20212;-65
2022/03/09 05:37:17;;;;;;;25.03;12.77;;;6.10;99.90;;;;;;4955760;28;20199;-66
2022/03/09 05:39:43;;;;;;;19.37;12.07;;;6.10;99.90;;;;;;4955516;28;20189;-67
2022/03/09 05:42:09;;;;;;;19.80;12.47;;;6.20;99.90;;;;;;4955699;28;20208;-66
2022/03/09 05:44:34;;;;;;;21.87;12.30;;;6.20;99.90;;;;;;4955551;28;20267;-65
2022/03/09 05:47:00;;;;;;;23.07;13.13;;;6.10;99.90;;;;;;4955496;28;20183;-65
2022/03/09 05:49:26;;;;;;;21.07;13.07;;;6.10;99.90;;;;;;4955914;28;20212;-66
2022/03/09 05:51:54;;;;;;;18.70;11.97;;;6.10;99.90;;;;;;4955268;28;20212;-66
2022/03/09 05:54:20;;;;;;;19.20;12.43;;;6.10;99.90;;;;;;4954855;28;20173;-66
2022/03/09 05:56:47;;;;;;;20.23;12.10;;;6.20;99.90;;;;;;4955565;28;20675;-65
2022/03/09 05:59:12;;;;;;;19.93;12.40;;;6.20;99.90;;;;;;4954060;29;20181;-66
2022/03/09 06:01:38;;;;;;;21.00;13.37;;;6.20;99.90;;;;;;4954462;28;20184;-66
2022/03/09 06:04:04;;;;;;;21.53;12.90;;;6.20;99.90;;;;;;4954382;28;20743;-66
2022/03/09 06:06:30;;;;;;;20.50;12.60;;;6.20;99.90;;;;;;4952922;29;20187;-65
2022/03/09 06:08:56;;;;;;;21.03;12.83;;;6.20;99.90;;;;;;4953857;28;20572;-66
2022/03/09 06:11:22;;;;;;;19.20;13.07;;;6.30;99.90;;;;;;4954679;28;20180;-66
2022/03/09 06:13:47;;;;;;;27.80;13.70;;;6.20;99.90;;;;;;4955290;28;20637;-66
2022/03/09 06:16:13;;;;;;;23.30;12.90;;;6.20;99.90;;;;;;4953354;29;20287;-66
2022/03/09 06:18:39;;;;;;;19.63;12.60;;;6.20;99.90;;;;;;4954496;28;20173;-66
2022/03/09 06:21:05;;;;;;;22.90;12.63;;;6.20;99.90;;;;;;4953673;28;20227;-66
2022/03/09 06:23:30;;;;;;;23.23;13.57;;;6.20;99.90;;;;;;4953336;28;20206;-66
2022/03/09 06:25:56;;;;;;;27.27;14.17;;;6.20;99.90;;;;;;4954911;28;20214;-66
2022/03/09 06:28:22;;;;;;;27.27;13.57;;;6.30;99.90;;;;;;4953375;28;20260;-67
2022/03/09 06:30:48;;;;;;;26.00;14.10;;;6.30;99.90;;;;;;4954722;28;20255;-66
2022/03/09 06:33:14;;;;;;;25.13;14.17;;;6.30;99.90;;;;;;4954208;28;20169;-67
2022/03/09 06:35:39;;;;;;;25.97;14.57;;;6.40;99.90;;;;;;4954424;28;20172;-66
2022/03/09 06:38:05;;;;;;;23.47;13.50;;;6.40;99.90;;;;;;4953339;28;20267;-67
2022/03/09 06:40:31;;;;;;;21.87;13.63;;;6.50;99.90;;;;;;4954053;28;20187;-66
2022/03/09 06:42:59;;;;;;;27.73;14.23;;;6.60;99.90;;;;;;4954189;28;20362;-67
2022/03/09 06:45:28;;;;;;;25.13;14.80;;;6.60;99.90;;;;;;4954041;28;20226;-67
2022/03/09 06:47:54;;;;;;;27.73;15.17;;;6.70;99.90;;;;;;4954258;28;20263;-66
2022/03/09 06:50:20;;;;;;;28.63;14.50;;;6.80;99.90;;;;;;4953166;28;20183;-67
2022/03/09 06:52:46;;;;;;;31.33;15.30;;;6.90;99.90;;;;;;4953378;28;20193;-67
2022/03/09 06:55:12;;;;;;;28.20;14.20;;;7.00;99.90;;;;;;4953981;28;20228;-66
2022/03/09 06:57:38;;;;;;;24.43;14.57;;;7.10;99.90;;;;;;4954175;28;20200;-66
2022/03/09 07:00:06;;;;;;;32.57;15.40;;;7.20;99.90;;;;;;4953211;28;20654;-68
2022/03/09 07:02:32;;;;;;;30.53;15.47;;;7.40;99.90;;;;;;4952572;28;20291;-67
2022/03/09 07:04:58;;;;;;;23.40;14.87;;;7.50;99.90;;;;;;4953959;28;20627;-67
2022/03/09 07:07:24;;;;;;;27.07;15.00;;;7.70;99.90;;;;;;4953798;28;20240;-67
2022/03/09 07:09:49;;;;;;;32.83;15.73;;;8.10;99.90;;;;;;4953072;28;20180;-66
2022/03/09 07:12:15;;;;;;;28.40;15.77;;;8.40;99.90;;;;;;4953567;28;20172;-67
2022/03/09 07:14:43;;;;;;;35.03;16.13;;;9.00;99.90;;;;;;4954154;28;20176;-66
2022/03/09 07:17:09;;;;;;;26.90;15.03;;;10.20;99.90;;;;;;4953572;28;20172;-66
2022/03/09 07:19:35;;;;;;;28.90;15.47;;;11.50;99.90;;;;;;4953544;28;20343;-67
2022/03/09 07:22:00;;;;;;;28.07;17.23;;;12.60;99.90;;;;;;4953897;28;20182;-66
2022/03/09 07:24:26;;;;;;;37.53;17.70;;;13.70;99.90;;;;;;4953270;28;20179;-67
2022/03/09 07:26:53;;;;;;;29.00;18.00;;;14.50;99.90;;;;;;4953458;28;20230;-67
2022/03/09 07:29:20;;;;;;;32.23;18.10;;;15.70;99.90;;;;;;4953076;28;20236;-67
2022/03/09 07:31:46;;;;;;;29.13;17.33;;;17.00;99.90;;;;;;4953315;28;20173;-68
2022/03/09 07:34:11;;;;;;;25.63;17.40;;;17.40;99.90;;;;;;4953185;28;20636;-68
2022/03/09 07:36:37;;;;;;;30.60;18.67;;;17.90;99.90;;;;;;4957241;28;20173;-67
2022/03/09 07:39:02;;;;;;;26.27;18.70;;;18.50;99.90;;;;;;4956833;28;20187;-68
2022/03/09 07:41:29;;;;;;;27.13;18.55;;;18.60;99.90;;;;;;4956632;28;20217;-67
2022/03/09 07:43:54;;;;;;;32.30;19.42;;;17.70;99.90;;;;;;4957382;28;20382;-68
2022/03/09 07:46:20;;;;;;;32.47;19.15;;;19.10;99.90;;;;;;4956460;28;20664;-67
2022/03/09 07:48:46;;;;;;;33.17;19.05;;;19.40;99.90;;;;;;4957149;28;20188;-67
2022/03/09 07:51:11;;;;;;;28.27;19.27;;;19.40;99.90;;;;;;4956563;28;20173;-66
2022/03/09 07:53:42;;;;;;;27.15;19.95;;;20.10;99.90;;;;;;4957707;28;20231;-67
2022/03/09 07:56:09;;;;;;;28.60;18.58;;;20.10;99.90;;;;;;4956745;28;20172;-67
2022/03/09 07:58:35;;;;;;;30.42;18.85;;;20.00;99.90;;;;;;4956914;28;20660;-68
2022/03/09 08:01:00;;;;;;;29.45;19.25;;;19.80;99.90;;;;;;4956733;28;20211;-67
2022/03/09 08:03:26;;;;;;;32.92;18.77;;;19.00;99.90;;;;;;4956591;28;20619;-67
2022/03/09 08:05:51;;;;;;;25.30;18.60;;;19.40;99.90;;;;;;4956502;28;20259;-68
2022/03/09 08:08:17;;;;;;;31.88;20.10;;;19.90;99.90;;;;;;4956072;28;20197;-68
2022/03/09 08:10:42;;;;;;;27.38;18.92;;;20.10;99.90;;;;;;4956828;28;20584;-68
2022/03/09 08:13:08;;;;;;;30.23;20.48;;;20.50;99.90;;;;;;4956109;28;20183;-68
2022/03/09 08:15:35;;;;;;;27.35;18.92;;;21.20;99.90;;;;;;4956865;28;20176;-67
2022/03/09 08:18:00;;;;;;;30.13;20.27;;;21.70;99.90;;;;;;4956643;28;20227;-68
2022/03/09 08:20:26;;;;;;;30.30;20.33;;;20.90;99.90;;;;;;4956166;28;20251;-67
2022/03/09 08:22:51;;;;;;;26.30;20.30;;;21.10;99.90;;;;;;4956126;28;20680;-67
2022/03/09 08:25:17;;;;;;;30.65;19.30;;;20.50;99.90;;;;;;4955535;29;20259;-69
2022/03/09 08:27:43;;;;;;;32.75;20.90;;;19.50;99.90;;;;;;4956644;28;20251;-70
2022/03/09 08:30:09;;;;;;;32.40;20.17;;;19.40;99.90;;;;;;4957019;28;20169;-71
2022/03/09 08:32:34;;;;;;;29.30;19.95;;;20.00;99.90;;;;;;4956323;28;20165;-72
2022/03/09 08:35:00;;;;;;;31.15;19.95;;;19.60;99.90;;;;;;4954591;29;20187;-71
2022/03/09 08:37:25;;;;;;;32.83;20.67;;;19.30;99.90;;;;;;4957009;28;20633;-70
2022/03/09 08:39:51;;;;;;;35.35;22.25;;;19.30;99.90;;;;;;4956577;28;20199;-70
2022/03/09 08:42:17;;;;;;;33.90;21.25;;;19.40;99.90;;;;;;4956676;28;20659;-69
2022/03/09 08:44:43;;;;;;;31.10;20.85;;;20.00;99.90;;;;;;4956775;28;20207;-71
2022/03/09 08:47:09;;;;;;;28.52;20.08;;;20.30;99.90;;;;;;4938087;29;20586;-69
2022/03/09 08:49:39;;;;;;;31.15;21.55;;;20.20;99.90;;;;;;4955643;28;20220;-69
2022/03/09 08:52:08;;;;;;;28.55;21.23;;;20.20;99.90;;;;;;4956104;28;20541;-71
2022/03/09 08:54:34;;;;;;;31.25;21.17;;;20.90;99.90;;;;;;4956465;28;20173;-70
2022/03/09 08:56:59;;;;;;;29.40;20.45;;;20.50;99.90;;;;;;4956086;28;20582;-70
2022/03/09 08:59:25;;;;;;;30.85;20.83;;;21.10;99.90;;;;;;4956037;28;20199;-71
2022/03/09 09:01:50;;;;;;;31.02;21.65;;;21.20;99.90;;;;;;4955418;28;20173;-70
2022/03/09 09:04:16;;;;;;;31.70;21.85;;;20.60;99.90;;;;;;4955662;28;20188;-70
2022/03/09 09:06:43;;;;;;;60.17;24.73;;;20.60;99.90;;;;;;4956316;28;20180;-70
2022/03/09 09:09:09;;;;;;;43.72;23.35;;;21.40;99.90;;;;;;4956179;28;20264;-70
2022/03/09 09:11:38;;;;;;;33.60;21.80;;;21.80;99.90;;;;;;4955855;28;20220;-71
2022/03/09 09:14:04;;;;;;;30.52;21.55;;;21.10;98.70;;;;;;4956266;28;20204;-70
2022/03/09 09:16:29;;;;;;;28.98;21.40;;;21.10;99.90;;;;;;4955754;28;20683;-72
2022/03/09 09:18:55;;;;;;;33.88;22.90;;;21.10;99.90;;;;;;4955020;28;20193;-70
2022/03/09 09:21:20;;;;;;;32.63;21.52;;;21.60;99.90;;;;;;4954785;28;20177;-70
2022/03/09 09:23:46;;;;;;;31.52;21.88;;;21.50;99.90;;;;;;4946142;28;20225;-71
2022/03/09 09:26:15;;;;;;;29.60;21.92;;;22.00;99.90;;;;;;4948733;29;20640;-71
2022/03/09 09:28:41;;;;;;;30.42;22.38;;;21.60;99.90;;;;;;4951014;28;20231;-70
2022/03/09 09:31:06;;;;;;;32.30;21.77;;;21.80;99.90;;;;;;4952382;28;20181;-71
2022/03/09 09:33:32;;;;;;;34.75;22.65;;;22.20;99.60;;;;;;4952302;28;20592;-71
2022/03/09 09:35:58;;;;;;;38.50;22.45;;;22.40;98.90;;;;;;4949120;29;20247;-71
2022/03/09 09:38:23;;;;;;;30.83;21.00;;;22.70;97.90;;;;;;4947231;28;20313;-70
2022/03/09 09:40:53;;;;;;;35.63;23.98;;;22.80;97.10;;;;;;4945095;29;20206;-71
2022/03/09 09:43:19;;;;;;;32.35;21.58;;;22.90;97.10;;;;;;4950371;29;20217;-71
2022/03/09 09:45:44;;;;;;;32.17;21.88;;;22.80;96.70;;;;;;4954613;28;20188;-70
2022/03/09 09:48:11;;;;;;;30.70;22.02;;;22.80;96.70;;;;;;4954918;28;20260;-71
2022/03/09 09:50:38;;;;;;;30.63;21.42;;;23.70;94.80;;;;;;4954160;28;20177;-70
2022/03/09 09:53:10;;;;;;;27.15;21.40;;;22.50;95.70;;;;;;4941710;28;20209;-70
2022/03/09 09:55:37;;;;;;;30.13;21.25;;;22.40;97.80;;;;;;4947660;29;20183;-71
2022/03/09 09:58:03;;;;;;;34.95;21.92;;;22.00;98.00;;;;;;4946951;28;20192;-71
2022/03/09 10:00:30;;;;;;;29.73;21.70;;;22.60;96.60;;;;;;4948742;29;20513;-72
2022/03/09 10:02:55;;;;;;;29.88;22.13;;;22.70;95.20;;;;;;4953812;28;20248;-71
2022/03/09 10:05:21;;;;;;;31.42;22.20;;;22.20;94.40;;;;;;4938096;28;20236;-72
2022/03/09 10:08:05;;;;;;;29.27;22.35;;;22.30;97.00;;;;;;4950555;29;20276;-71
2022/03/09 10:10:32;;;;;;;29.80;21.75;;;23.10;94.80;;;;;;4944275;29;20283;-71
2022/03/09 10:13:15;;;;;;;33.92;22.55;;;22.80;95.70;;;;;;4953292;28;20180;-71
2022/03/09 10:15:43;;;;;;;30.52;22.33;;;22.50;95.50;;;;;;4953063;29;20284;-71
2022/03/09 10:18:22;;;;;;;32.20;21.63;;;22.40;94.80;;;;;;4953564;28;20181;-71
2022/03/09 10:20:49;;;;;;;33.90;21.92;;;22.50;97.00;;;;;;4946177;29;20257;-70
2022/03/09 10:23:17;;;;;;;29.33;21.55;;;23.10;94.90;;;;;;4948970;28;20216;-71
2022/03/09 10:25:43;;;;;;;33.53;22.10;;;22.00;94.80;;;;;;4952088;28;20688;-70
2022/03/09 10:28:11;;;;;;;32.95;21.67;;;21.60;99.90;;;;;;4942983;29;20316;-71
2022/03/09 10:30:42;;;;;;;32.67;21.75;;;21.70;95.50;;;;;;4953991;28;20172;-70
2022/03/09 10:33:10;;;;;;;35.80;22.38;;;22.30;95.50;;;;;;4940042;28;20228;-70
2022/03/09 10:35:36;;;;;;;31.98;22.40;;;22.50;96.00;;;;;;4951490;29;20181;-70
2022/03/09 10:38:07;;;;;;;33.75;22.88;;;22.20;93.00;;;;;;4949546;28;20582;-70
2022/03/09 10:40:40;;;;;;;33.78;22.67;;;22.60;94.70;;;;;;4951247;29;20169;-72
2022/03/09 10:43:13;;;;;;;31.85;22.38;;;22.70;93.60;;;;;;4953161;28;20236;-71
2022/03/09 10:46:07;;;;;;;33.10;23.00;;;22.10;95.10;;;;;;4937610;28;20173;-69
2022/03/09 10:48:50;;;;;;;30.27;22.17;;;22.00;96.20;;;;;;4951227;29;20544;-71
2022/03/09 10:51:31;;;;;;;31.17;22.00;;;22.60;95.80;;;;;;4950511;28;20286;-69
2022/03/09 10:53:58;;;;;;;33.80;22.63;;;21.90;96.10;;;;;;4937790;29;20226;-70
2022/03/09 10:56:23;;;;;;;30.63;22.63;;;21.90;95.00;;;;;;4952244;28;20200;-71
2022/03/09 10:58:49;;;;;;;32.55;23.15;;;21.90;95.20;;;;;;4942179;28;20178;-70
2022/03/09 11:01:19;;;;;;;32.08;22.65;;;21.50;96.20;;;;;;4948793;29;20232;-69
2022/03/09 11:03:46;;;;;;;34.15;23.02;;;21.60;96.10;;;;;;4937764;28;20223;-71
2022/03/09 11:06:12;;;;;;;38.25;23.65;;;21.70;96.20;;;;;;4952277;28;20169;-70
2022/03/09 11:08:39;;;;;;;33.50;22.92;;;21.10;95.20;;;;;;4953475;28;20215;-69
2022/03/09 11:11:06;;;;;;;38.85;23.60;;;20.50;97.70;;;;;;4943689;28;20260;-69
2022/03/09 11:13:34;;;;;;;33.55;23.08;;;19.90;96.80;;;;;;4954113;29;20271;-69
2022/03/09 11:16:00;;;;;;;37.90;21.70;;;19.80;99.90;;;;;;4941940;29;20224;-70
2022/03/09 11:18:29;;;;;;;34.75;22.98;;;20.10;98.50;;;;;;4949476;28;20177;-71
2022/03/09 11:21:00;;;;;;;32.33;22.85;;;20.70;97.60;;;;;;4949872;29;20566;-69
2022/03/09 11:23:27;;;;;;;32.13;22.17;;;21.60;97.90;;;;;;4940965;28;20328;-70
2022/03/09 11:26:07;;;;;;;34.90;23.00;;;21.60;97.40;;;;;;4940823;29;20168;-69
2022/03/09 11:28:41;;;;;;;35.08;23.52;;;21.60;96.10;;;;;;4946278;28;20223;-70
2022/03/09 11:31:10;;;;;;;37.10;23.50;;;21.60;97.80;;;;;;4957577;28;20278;-70
2022/03/09 11:33:44;;;;;;;33.70;23.52;;;22.10;96.20;;;;;;4956773;28;20211;-70
2022/03/09 11:36:36;;;;;;;32.47;23.40;;;21.20;97.20;;;;;;4950005;29;20633;-70
2022/03/09 11:39:04;;;;;;;33.40;23.10;;;21.20;97.10;;;;;;4951399;29;20187;-69
2022/03/09 11:41:36;;;;;;;36.45;22.92;;;20.70;97.60;;;;;;4946719;28;20228;-69
2022/03/09 11:44:31;;;;;;;37.10;23.73;;;20.20;99.60;;;;;;4947820;29;20269;-69
2022/03/09 11:46:56;;;;;;;37.22;24.92;;;19.80;99.30;;;;;;4949966;29;20267;-70
2022/03/09 11:49:22;;;;;;;36.28;23.45;;;19.60;99.90;;;;;;4938136;29;20275;-68
2022/03/09 11:52:10;;;;;;;34.25;23.00;;;19.60;99.90;;;;;;4937593;29;20193;-69
2022/03/09 11:54:44;;;;;;;34.67;23.25;;;19.50;99.90;;;;;;4945315;29;20192;-69
2022/03/09 11:57:11;;;;;;;37.00;23.60;;;19.50;99.90;;;;;;4948087;29;20184;-69
2022/03/09 11:59:37;;;;;;;37.45;24.23;;;19.50;99.90;;;;;;4938961;29;20630;-70
2022/03/09 12:02:09;;;;;;;39.47;23.90;;;19.40;99.90;;;;;;4949204;29;20174;-71
2022/03/09 12:04:45;;;;;;;39.13;22.95;;;19.40;99.90;;;;;;4944133;29;20200;-69
2022/03/09 12:07:12;;;;;;;40.05;25.10;;;19.40;99.90;;;;;;4940739;29;20196;-70
2022/03/09 12:09:57;;;;;;;36.17;23.23;;;19.90;99.90;;;;;;4950508;29;20721;-69
2022/03/09 12:12:26;;;;;;;36.47;24.02;;;20.10;99.90;;;;;;4941965;29;20187;-69
2022/03/09 12:15:12;;;;;;;42.20;24.73;;;20.50;99.90;;;;;;4943215;29;20529;-70
2022/03/09 12:17:43;;;;;;;37.67;23.92;;;19.70;99.90;;;;;;4951864;29;20196;-70
2022/03/09 12:20:18;;;;;;;34.42;23.90;;;19.00;99.90;;;;;;4948570;29;20607;-70
2022/03/09 12:23:01;;;;;;;40.42;23.88;;;18.50;99.90;;;;;;4932609;29;20212;-71
2022/03/09 12:25:47;;;;;;;40.78;23.90;;;18.30;99.90;;;;;;4936298;29;20659;-69
2022/03/09 12:28:28;;;;;;;37.10;23.15;;;18.70;99.90;;;;;;4936136;29;20561;-70
2022/03/09 12:31:03;;;;;;;41.55;24.08;;;18.30;99.90;;;;;;4937452;29;20207;-69
2022/03/09 12:33:39;;;;;;;37.42;23.45;;;18.60;99.90;;;;;;4937468;29;20200;-68
2022/03/09 12:36:08;;;;;;;35.85;23.50;;;18.60;99.90;;;;;;4937172;29;20653;-69